Time;durP1;ratioP1;P1;durP2;ratioP2;P2;SDS_P1;SDS_P2;PMS_P1;PMS_P2;Temp;Humidity;BMP_temperature;BMP_pressure;BME280_temperature;BME280_humidity;BME280_pressure;Samples;Min_cycle;Max_cycle;Signal;HPM_P1;HPM_P2
2023/12/06 00:01:51;;;;;;;2.45;2.03;;;;;;;19.17;32.42;101003.09;16112176;19;130012;-46
2023/12/06 00:07:13;;;;;;;3.65;2.00;;;;;;;19.13;32.67;101013.00;16116354;19;130543;-48
2023/12/06 00:12:35;;;;;;;3.40;1.95;;;;;;;19.09;32.55;101004.34;16114502;19;132163;-45
2023/12/06 00:17:57;;;;;;;3.00;1.95;;;;;;;19.05;32.76;101017.88;16109582;19;130094;-46
2023/12/06 00:23:19;;;;;;;7.20;2.58;;;;;;;19.02;32.72;101018.34;16110770;19;131758;-47
2023/12/06 00:28:41;;;;;;;3.15;2.00;;;;;;;18.99;32.60;101024.38;16108032;19;130233;-47
2023/12/06 00:34:03;;;;;;;3.38;2.00;;;;;;;18.97;32.64;101034.88;16111415;19;130060;-47
2023/12/06 00:39:25;;;;;;;3.65;2.25;;;;;;;18.90;32.52;101035.00;16107095;19;129789;-47
2023/12/06 00:44:48;;;;;;;3.35;2.17;;;;;;;18.87;32.83;101038.28;16110661;19;130373;-50
2023/12/06 00:50:10;;;;;;;3.63;2.47;;;;;;;18.84;32.82;101052.63;16103343;19;130190;-46
2023/12/06 00:55:32;;;;;;;2.55;2.10;;;;;;;18.81;32.61;101044.81;16110531;19;131263;-47
2023/12/06 01:00:54;;;;;;;3.95;2.55;;;;;;;18.77;32.75;101058.31;16105737;19;133806;-46
2023/12/06 01:06:16;;;;;;;3.13;2.50;;;;;;;18.75;32.44;101063.25;16112164;19;129807;-46
2023/12/06 01:11:38;;;;;;;3.50;2.20;;;;;;;18.72;32.47;101063.75;16104580;19;131305;-46
2023/12/06 01:17:00;;;;;;;3.45;2.35;;;;;;;18.69;32.94;101072.56;16107083;19;130560;-48
2023/12/06 01:22:22;;;;;;;2.70;2.10;;;;;;;18.65;33.00;101074.13;16106597;19;130350;-45
2023/12/06 01:27:44;;;;;;;2.88;2.17;;;;;;;18.64;32.84;101093.78;16105406;19;129671;-47
2023/12/06 01:33:06;;;;;;;4.47;2.50;;;;;;;18.61;32.62;101092.31;16106580;19;130870;-46
2023/12/06 01:38:28;;;;;;;2.83;2.10;;;;;;;18.57;32.62;101099.44;16109080;19;129583;-46
2023/12/06 01:43:50;;;;;;;2.13;1.90;;;;;;;18.56;33.14;101111.59;16104907;19;129624;-47
2023/12/06 01:49:12;;;;;;;2.42;2.08;;;;;;;18.54;32.97;101116.53;16104470;19;129587;-50
2023/12/06 01:54:35;;;;;;;2.50;2.28;;;;;;;18.52;32.69;101124.25;16105292;19;129687;-45
2023/12/06 01:59:58;;;;;;;2.97;2.10;;;;;;;18.49;32.96;101122.81;16103488;19;131317;-48
2023/12/06 02:05:20;;;;;;;3.38;2.35;;;;;;;18.46;33.07;101129.66;16106845;19;130033;-51
2023/12/06 02:10:42;;;;;;;2.85;2.10;;;;;;;18.45;33.26;101130.75;16102426;19;131210;-48
2023/12/06 02:16:05;;;;;;;3.83;2.30;;;;;;;18.42;33.21;101131.22;16103414;19;129409;-49
2023/12/06 02:21:28;;;;;;;3.33;2.20;;;;;;;18.39;32.92;101137.25;16106107;19;129619;-47
2023/12/06 02:26:52;;;;;;;3.67;2.33;;;;;;;18.38;33.00;101143.00;16119353;19;129740;-45
2023/12/06 02:32:14;;;;;;;3.40;2.00;;;;;;;18.36;33.43;101137.69;16115187;19;131037;-45
2023/12/06 02:37:40;;;;;;;2.85;2.03;;;;;;;18.34;33.02;101139.84;16110575;19;130628;-50
2023/12/06 02:43:02;;;;;;;3.00;1.90;;;;;;;18.31;33.08;101145.88;16115406;19;130517;-45
2023/12/06 02:48:24;;;;;;;2.17;1.88;;;;;;;18.31;33.24;101151.41;16116352;19;129695;-44
2023/12/06 02:53:46;;;;;;;1.90;1.70;;;;;;;18.28;33.28;101147.19;16116657;19;131182;-47
2023/12/06 02:59:08;;;;;;;2.28;1.52;;;;;;;18.27;33.55;101144.66;16113206;19;129449;-48
2023/12/06 03:04:30;;;;;;;2.80;1.90;;;;;;;18.24;33.25;101150.66;16117724;19;129689;-45
2023/12/06 03:09:53;;;;;;;2.58;1.88;;;;;;;18.23;33.35;101155.38;16119084;19;129531;-44
2023/12/06 03:15:15;;;;;;;2.13;1.85;;;;;;;18.21;33.68;101157.53;16116041;19;130871;-47
2023/12/06 03:20:37;;;;;;;2.97;2.22;;;;;;;18.21;33.59;101159.47;16116850;19;131001;-48
2023/12/06 03:25:58;;;;;;;3.65;1.80;;;;;;;18.19;33.32;101164.41;16117784;19;129435;-49
2023/12/06 03:31:21;;;;;;;2.90;1.60;;;;;;;18.18;33.54;101159.94;16109739;19;130155;-49
2023/12/06 03:36:42;;;;;;;1.60;1.50;;;;;;;18.16;33.83;101162.94;16116478;19;131968;-49
2023/12/06 03:42:05;;;;;;;2.58;1.63;;;;;;;18.14;33.35;101157.66;16118466;19;130659;-48
2023/12/06 03:47:27;;;;;;;2.20;1.80;;;;;;;18.12;33.72;101168.09;16117283;19;129714;-51
2023/12/06 03:52:49;;;;;;;2.33;2.00;;;;;;;18.11;33.78;101162.81;16113415;19;130862;-46
2023/12/06 03:58:11;;;;;;;2.38;1.60;;;;;;;18.09;33.95;101174.09;16114076;19;131173;-50
2023/12/06 04:03:33;;;;;;;2.33;1.55;;;;;;;18.08;33.79;101182.66;16113468;19;130239;-51
2023/12/06 04:08:56;;;;;;;2.25;1.90;;;;;;;18.05;33.60;101181.22;16113660;19;130684;-48
2023/12/06 04:14:18;;;;;;;2.10;1.50;;;;;;;18.04;33.98;101187.84;16113552;19;130074;-44
2023/12/06 04:19:40;;;;;;;2.25;1.67;;;;;;;18.03;33.92;101188.91;16112291;19;130894;-48
2023/12/06 04:25:03;;;;;;;3.08;1.80;;;;;;;18.02;33.82;101187.22;16108790;19;131066;-50
2023/12/06 04:30:25;;;;;;;2.17;1.42;;;;;;;18.00;34.01;101194.91;16110612;19;129669;-52
2023/12/06 04:35:47;;;;;;;2.60;1.60;;;;;;;17.99;34.01;101198.75;16111981;19;131169;-51
2023/12/06 04:41:09;;;;;;;2.33;1.48;;;;;;;17.97;33.93;101201.78;16109627;19;129972;-53
2023/12/06 04:46:31;;;;;;;1.95;1.33;;;;;;;17.95;33.82;101198.41;16109669;19;129445;-51
2023/12/06 04:51:53;;;;;;;2.53;1.55;;;;;;;17.94;33.80;101213.31;16111866;19;131043;-49
2023/12/06 04:57:15;;;;;;;3.10;1.70;;;;;;;17.91;34.08;101211.00;16112035;19;130887;-48
2023/12/06 05:02:37;;;;;;;2.20;1.92;;;;;;;17.91;33.77;101221.25;16112236;19;130801;-50
2023/12/06 05:07:59;;;;;;;2.17;1.58;;;;;;;17.90;33.94;101225.09;16112668;19;130944;-46
2023/12/06 05:13:21;;;;;;;2.30;1.60;;;;;;;17.88;34.02;101244.72;16105690;19;131142;-52
2023/12/06 05:18:44;;;;;;;2.05;1.60;;;;;;;17.86;34.19;101249.63;16109263;19;131644;-47
2023/12/06 05:24:06;;;;;;;1.92;1.50;;;;;;;17.84;34.13;101241.56;16110444;19;129756;-49
2023/12/06 05:29:28;;;;;;;2.20;1.55;;;;;;;17.83;34.15;101245.41;16108779;19;129401;-51
2023/12/06 05:34:51;;;;;;;2.45;1.77;;;;;;;17.80;34.03;101240.34;16105905;19;131114;-49
2023/12/06 05:40:13;;;;;;;2.42;1.80;;;;;;;17.79;33.80;101244.19;16107043;19;129614;-50
2023/12/06 05:45:35;;;;;;;2.60;1.63;;;;;;;17.78;33.90;101248.03;16112684;19;134944;-49
2023/12/06 05:50:57;;;;;;;2.38;1.95;;;;;;;17.77;34.21;101257.41;16110426;19;129901;-49
2023/12/06 05:56:19;;;;;;;2.97;1.60;;;;;;;17.76;34.02;101266.78;16114555;19;130582;-53
2023/12/06 06:01:41;;;;;;;1.50;1.30;;;;;;;17.75;33.79;101270.63;16124094;19;130593;-53
2023/12/06 06:07:03;;;;;;;4.53;1.90;;;;;;;17.74;34.24;101273.63;16122218;19;129927;-49
2023/12/06 06:12:25;;;;;;;2.35;1.60;;;;;;;17.73;34.37;101278.31;16121300;19;129904;-51
2023/12/06 06:17:47;;;;;;;2.95;1.70;;;;;;;17.73;33.96;101277.47;16116526;19;130465;-51
2023/12/06 06:23:11;;;;;;;3.22;1.80;;;;;;;17.73;33.93;101283.00;16114831;19;130720;-48
2023/12/06 06:28:32;;;;;;;2.35;1.65;;;;;;;17.71;34.33;101286.00;16117466;19;129661;-53
2023/12/06 06:34:01;;;;;;;2.83;1.50;;;;;;;17.71;34.14;101291.56;16118469;19;130004;-49
2023/12/06 06:39:23;;;;;;;2.97;1.60;;;;;;;17.70;34.19;101295.38;16123477;19;130038;-54
2023/12/06 06:44:47;;;;;;;3.85;1.70;;;;;;;17.70;33.99;101306.47;16119472;19;130897;-50
2023/12/06 06:50:16;;;;;;;10.93;1.88;;;;;;;17.69;34.27;101299.22;16125021;19;131452;-53
2023/12/06 06:55:42;;;;;;;1.70;1.60;;;;;;;17.67;34.38;101302.22;16115356;19;130863;-51
2023/12/06 07:01:05;;;;;;;2.47;1.52;;;;;;;17.64;34.42;101308.22;16122930;19;129725;-52
2023/12/06 07:06:27;;;;;;;2.05;1.30;;;;;;;17.63;34.40;101311.19;16119971;19;129527;-51
2023/12/06 07:11:49;;;;;;;3.35;1.70;;;;;;;17.63;34.42;101314.84;16119027;19;129864;-47
2023/12/06 07:17:11;;;;;;;2.70;1.73;;;;;;;17.62;34.53;101331.66;16111591;19;129815;-45
2023/12/06 07:22:33;;;;;;;2.97;1.70;;;;;;;17.59;34.31;101330.19;16119046;19;129803;-49
2023/12/06 07:27:55;;;;;;;4.20;1.55;;;;;;;17.58;34.62;101341.50;16116612;19;129754;-49
2023/12/06 07:33:17;;;;;;;2.20;1.48;;;;;;;17.57;34.80;101345.34;16116958;19;130580;-45
2023/12/06 07:38:39;;;;;;;4.20;1.70;;;;;;;17.53;34.79;101353.22;16119803;19;130480;-48
2023/12/06 07:44:02;;;;;;;2.40;1.65;;;;;;;17.51;34.64;101356.19;16117115;19;130084;-48
2023/12/06 07:49:24;;;;;;;2.53;1.67;;;;;;;17.50;34.72;101356.44;16114267;19;129353;-44
2023/12/06 07:54:46;;;;;;;2.03;1.55;;;;;;;17.50;34.57;101357.25;16115796;19;129467;-48
2023/12/06 08:00:11;;;;;;;3.60;1.45;;;;;;;17.49;34.55;101385.16;16117175;19;129699;-50
2023/12/06 08:05:33;;;;;;;1.92;1.52;;;;;;;17.48;34.79;101378.78;16118408;19;129949;-45
2023/12/06 08:10:55;;;;;;;3.05;1.42;;;;;;;17.47;34.72;101393.72;16114111;19;130574;-47
2023/12/06 08:16:17;;;;;;;1.80;1.48;;;;;;;17.46;34.88;101397.53;16118462;19;130258;-48
2023/12/06 08:21:39;;;;;;;2.67;1.80;;;;;;;17.45;34.47;101395.84;16114204;19;131296;-46
2023/12/06 08:27:02;;;;;;;2.75;1.75;;;;;;;17.44;34.63;101398.81;16109333;19;129624;-46
2023/12/06 08:32:25;;;;;;;3.40;1.58;;;;;;;17.50;34.60;101404.28;16107789;19;130901;-45
2023/12/06 08:37:46;;;;;;;2.80;1.50;;;;;;;17.78;34.68;101403.00;16109766;19;129519;-46
2023/12/06 08:43:08;;;;;;;2.13;1.50;;;;;;;17.95;34.10;101413.47;16114438;19;130645;-48
2023/12/06 08:48:30;;;;;;;2.25;1.60;;;;;;;17.82;34.35;101422.75;16116106;19;129908;-50
2023/12/06 08:53:53;;;;;;;2.78;1.50;;;;;;;17.75;34.42;101420.06;16111956;19;129520;-44
2023/12/06 08:59:15;;;;;;;2.90;1.25;;;;;;;17.70;34.44;101428.22;16111109;19;132546;-50
2023/12/06 09:04:37;;;;;;;2.15;1.42;;;;;;;17.64;34.23;101432.72;16116513;19;129563;-53
2023/12/06 09:09:58;;;;;;;2.58;1.30;;;;;;;17.61;34.47;101443.38;16114865;19;130160;-51
2023/12/06 09:15:21;;;;;;;1.77;1.50;;;;;;;17.56;34.46;101443.22;16104905;19;131316;-52
2023/12/06 09:20:43;;;;;;;2.00;1.40;;;;;;;17.50;34.51;101445.78;16108188;19;130572;-51
2023/12/06 09:26:05;;;;;;;2.45;1.83;;;;;;;17.46;34.67;101452.88;16109986;19;130456;-50
2023/12/06 09:31:27;;;;;;;1.45;1.10;;;;;;;17.43;34.89;101460.75;16108618;19;129815;-50
2023/12/06 09:36:50;;;;;;;1.88;1.20;;;;;;;17.41;34.62;101458.22;16108483;19;129574;-47
2023/12/06 09:42:12;;;;;;;2.47;1.60;;;;;;;17.39;34.72;101454.81;16110013;19;131230;-45
2023/12/06 09:47:35;;;;;;;2.45;1.30;;;;;;;17.37;34.88;101471.66;16108236;19;129917;-49
2023/12/06 09:52:58;;;;;;;2.53;1.50;;;;;;;17.35;34.65;101472.97;16109265;19;129502;-44
2023/12/06 09:58:19;;;;;;;2.40;1.20;;;;;;;17.34;34.81;101482.31;16109553;19;129706;-51
2023/12/06 10:03:42;;;;;;;2.90;1.55;;;;;;;17.34;35.09;101490.63;16107918;19;131011;-46
2023/12/06 10:09:10;;;;;;;3.05;1.23;;;;;;;17.34;34.75;101485.09;16107663;19;130216;-48
2023/12/06 10:14:32;;;;;;;3.05;1.42;;;;;;;17.33;34.96;101486.16;16105653;19;129932;-46
2023/12/06 10:19:55;;;;;;;2.63;1.58;;;;;;;17.34;35.10;101490.63;16104369;19;131077;-48
2023/12/06 10:25:17;;;;;;;1.40;1.10;;;;;;;17.34;34.73;101498.91;16102373;19;129632;-48
2023/12/06 10:30:40;;;;;;;2.35;1.40;;;;;;;17.34;34.96;101496.16;16105220;19;129869;-44
2023/12/06 10:36:04;;;;;;;1.75;1.33;;;;;;;17.32;34.72;101488.06;16105376;19;130734;-49
2023/12/06 10:41:26;;;;;;;1.80;1.38;;;;;;;17.31;34.98;101480.00;16101129;19;129908;-47
2023/12/06 10:46:48;;;;;;;2.65;1.50;;;;;;;17.31;34.89;101491.88;16114255;19;129469;-47
2023/12/06 10:52:26;;;;;;;2.75;1.33;;;;;;;17.29;35.00;101494.06;16114582;19;131192;-44
2023/12/06 10:57:50;;;;;;;2.13;1.30;;;;;;;17.28;34.82;101503.44;16112552;19;129856;-47
2023/12/06 11:03:12;;;;;;;1.33;1.07;;;;;;;17.24;35.13;101497.47;16119091;19;132059;-45
2023/12/06 11:09:00;;;;;;;2.22;1.23;;;;;;;17.26;34.87;101499.16;16119139;19;130147;-47
2023/12/06 11:14:41;;;;;;;2.70;1.38;;;;;;;17.24;35.05;101491.94;16115679;19;129620;-48
2023/12/06 11:20:04;;;;;;;1.30;1.20;;;;;;;17.21;35.13;101495.16;16119402;19;130807;-52
2023/12/06 11:25:27;;;;;;;1.95;1.38;;;;;;;17.20;35.32;101499.00;16116415;19;130563;-47
2023/12/06 11:30:53;;;;;;;2.10;1.25;;;;;;;17.19;35.37;101496.44;16116809;19;132263;-45
2023/12/06 11:36:16;;;;;;;2.22;1.30;;;;;;;17.17;35.14;101507.72;16118679;19;129378;-44
2023/12/06 11:41:45;;;;;;;2.63;1.38;;;;;;;17.17;35.06;101507.72;16117421;19;131187;-49
2023/12/06 11:47:07;;;;;;;2.67;1.60;;;;;;;17.16;35.06;101499.69;16118066;19;130443;-52
2023/12/06 11:52:30;;;;;;;1.38;0.90;;;;;;;17.14;35.53;101494.34;16114476;19;131581;-52
2023/12/06 11:58:03;;;;;;;1.55;1.15;;;;;;;17.14;35.36;101502.66;16114324;19;129923;-50
2023/12/06 12:03:25;;;;;;;3.45;1.40;;;;;;;17.12;35.13;101484.59;16114686;19;129541;-53
2023/12/06 12:08:48;;;;;;;1.65;1.10;;;;;;;17.10;35.60;101495.88;16114391;19;129510;-52
2023/12/06 12:14:10;;;;;;;2.53;1.40;;;;;;;17.11;35.53;101488.44;16115612;19;129866;-50
2023/12/06 12:19:32;;;;;;;1.25;1.05;;;;;;;17.10;35.16;101501.41;16113491;19;129657;-54
2023/12/06 12:24:55;;;;;;;2.15;1.33;;;;;;;17.10;35.36;101501.41;16111233;19;130596;-48
2023/12/06 12:30:18;;;;;;;1.92;1.25;;;;;;;17.08;35.32;101495.25;16108753;19;129774;-49
2023/12/06 12:35:41;;;;;;;2.75;1.30;;;;;;;17.08;35.53;101503.53;16110562;19;136084;-51
2023/12/06 12:41:06;;;;;;;1.92;1.35;;;;;;;17.07;35.36;101499.09;16111898;19;130190;-46
2023/12/06 12:46:30;;;;;;;1.80;1.30;;;;;;;17.06;35.55;101505.69;16106308;19;130637;-49
2023/12/06 12:51:53;;;;;;;2.22;1.30;;;;;;;17.04;35.47;101508.69;16109212;19;130677;-45
2023/12/06 12:57:15;;;;;;;1.33;1.10;;;;;;;17.03;35.15;101508.88;16110383;19;135054;-48
2023/12/06 13:02:37;;;;;;;1.92;1.20;;;;;;;17.02;35.43;101508.03;16112327;19;130313;-47
2023/12/06 13:07:59;;;;;;;1.95;1.30;;;;;;;17.01;35.54;101508.25;16108600;19;130779;-45
2023/12/06 13:13:21;;;;;;;4.10;1.30;;;;;;;17.00;35.54;101501.03;16109165;19;129907;-48
2023/12/06 13:18:46;;;;;;;1.80;1.10;;;;;;;17.00;35.36;101495.50;16107390;19;129641;-52
2023/12/06 13:24:08;;;;;;;3.10;1.17;;;;;;;17.00;35.65;101503.78;16111511;19;129155;-43
2023/12/06 13:29:30;;;;;;;1.50;1.20;;;;;;;17.00;35.57;101495.50;16109695;19;131273;-47
2023/12/06 13:34:52;;;;;;;2.53;1.40;;;;;;;16.99;35.59;101504.84;16107875;19;129945;-44
2023/12/06 13:40:14;;;;;;;1.75;1.30;;;;;;;16.98;35.67;101508.72;16109859;19;131223;-49
2023/12/06 13:45:36;;;;;;;1.55;1.30;;;;;;;16.97;35.60;101524.44;16110526;19;129647;-50
2023/12/06 13:50:58;;;;;;;1.63;1.15;;;;;;;16.95;35.56;101520.19;16108600;19;129585;-47
2023/12/06 13:56:21;;;;;;;2.05;1.25;;;;;;;16.95;35.31;101520.19;16106794;19;135071;-47
2023/12/06 14:01:43;;;;;;;2.35;1.40;;;;;;;16.93;35.66;101520.41;16103485;19;129851;-48
2023/12/06 14:07:07;;;;;;;1.42;1.05;;;;;;;16.92;35.37;101527.84;16103601;19;129446;-47
2023/12/06 14:12:29;;;;;;;2.70;1.10;;;;;;;16.90;35.40;101529.16;16105256;19;130928;-42
2023/12/06 14:17:51;;;;;;;1.33;1.10;;;;;;;16.88;35.53;101537.66;16114788;19;129597;-47
2023/12/06 14:23:13;;;;;;;1.70;1.15;;;;;;;16.87;35.55;101535.94;16120910;19;130642;-45
2023/12/06 14:28:37;;;;;;;2.65;1.30;;;;;;;16.86;35.42;101548.06;16121190;19;131318;-45
2023/12/06 14:33:59;;;;;;;1.50;1.08;;;;;;;16.85;35.86;101554.69;16115911;19;130862;-45
2023/12/06 14:39:21;;;;;;;1.63;1.10;;;;;;;16.84;35.59;101549.38;16116634;19;130669;-43
2023/12/06 14:44:46;;;;;;;1.73;1.23;;;;;;;16.83;35.43;101548.53;16116433;19;129902;-45
2023/12/06 14:50:09;;;;;;;1.60;1.10;;;;;;;16.83;35.92;101554.06;16116672;19;129352;-44
2023/12/06 14:55:32;;;;;;;1.42;1.08;;;;;;;16.83;35.87;101562.34;16120149;19;129559;-49
2023/12/06 15:00:54;;;;;;;1.73;1.00;;;;;;;16.82;35.82;101555.13;16119913;19;129854;-47
2023/12/06 15:06:16;;;;;;;1.45;1.00;;;;;;;16.80;35.53;101568.31;16119998;19;129725;-43
2023/12/06 15:11:39;;;;;;;2.17;1.27;;;;;;;16.79;35.68;101574.88;16120329;19;130910;-48
2023/12/06 15:17:01;;;;;;;0.98;0.80;;;;;;;16.78;35.48;101581.47;16119164;19;129962;-44
2023/12/06 15:22:23;;;;;;;1.80;1.30;;;;;;;16.77;35.50;101596.38;16116206;19;131537;-44
2023/12/06 15:27:46;;;;;;;1.13;1.02;;;;;;;16.76;35.85;101594.66;16115650;19;129446;-47
2023/12/06 15:33:09;;;;;;;1.42;0.95;;;;;;;16.74;35.52;101600.41;16117893;19;129531;-44
2023/12/06 15:38:31;;;;;;;1.02;0.90;;;;;;;16.72;35.90;101613.59;16117554;19;130768;-48
2023/12/06 15:43:53;;;;;;;1.90;1.27;;;;;;;16.72;35.69;101607.25;16117498;19;129950;-44
2023/12/06 15:49:14;;;;;;;1.20;0.80;;;;;;;16.70;35.76;101617.66;16112923;19;131121;-45
2023/12/06 15:54:37;;;;;;;1.60;0.93;;;;;;;16.80;35.90;101626.34;16113401;19;130036;-49
2023/12/06 15:59:59;;;;;;;1.13;0.85;;;;;;;17.23;35.50;101633.19;16115980;19;130653;-48
2023/12/06 16:05:21;;;;;;;0.63;0.63;;;;;;;17.77;34.93;101639.31;16114554;19;129834;-43
2023/12/06 16:10:43;;;;;;;2.45;1.10;;;;;;;18.33;34.05;101642.31;16115352;19;129642;-44
2023/12/06 16:16:22;;;;;;;1.88;0.82;;;;;;;18.85;33.90;101655.03;16114741;19;129479;-46
2023/12/06 16:21:46;;;;;;;1.50;0.97;;;;;;;19.27;32.95;101663.53;16114032;19;130916;-47
2023/12/06 16:27:19;;;;;;;1.05;0.70;;;;;;;19.54;32.85;101657.63;16112527;19;131612;-44
2023/12/06 16:32:42;;;;;;;1.63;0.82;;;;;;;19.66;32.73;101666.00;16107021;19;130079;-43
2023/12/06 16:38:05;;;;;;;1.35;1.10;;;;;;;19.63;32.33;101678.41;16112477;19;129403;-47
2023/12/06 16:43:26;;;;;;;1.90;0.85;;;;;;;19.54;32.39;101679.84;16110905;19;129526;-47
2023/12/06 16:48:48;;;;;;;1.10;1.00;;;;;;;19.38;32.57;101693.25;16111796;19;130101;-48
2023/12/06 16:54:11;;;;;;;1.10;0.90;;;;;;;19.20;32.51;101696.88;16111458;19;131862;-44
2023/12/06 16:59:33;;;;;;;6.13;1.00;;;;;;;19.04;32.74;101698.34;16111525;19;131470;-48
2023/12/06 17:04:57;;;;;;;1.30;1.10;;;;;;;18.89;32.88;101706.16;16113135;19;128941;-47
2023/12/06 17:10:19;;;;;;;1.50;1.00;;;;;;;18.75;33.25;101702.69;16110633;19;131247;-48
2023/12/06 17:15:42;;;;;;;1.90;1.00;;;;;;;18.61;33.38;101710.25;16105098;19;131733;-47
2023/12/06 17:21:04;;;;;;;2.65;1.10;;;;;;;18.48;33.69;101713.16;16107709;19;129665;-44
2023/12/06 17:26:27;;;;;;;1.30;1.00;;;;;;;18.52;33.65;101701.41;16102587;19;131243;-46
2023/12/06 17:32:00;;;;;;;4.18;1.00;;;;;;;18.65;33.59;101716.19;16102037;19;130045;-46
2023/12/06 17:37:22;;;;;;;3.55;1.00;;;;;;;18.94;33.59;101720.19;16104448;19;129533;-46
2023/12/06 17:42:45;;;;;;;3.70;1.23;;;;;;;19.41;33.18;101719.69;16104556;19;131339;-47
2023/12/06 17:48:07;;;;;;;4.40;1.13;;;;;;;19.92;32.62;101720.31;16103811;19;130843;-44
2023/12/06 17:53:30;;;;;;;2.95;1.33;;;;;;;20.34;32.15;101727.81;16112106;19;129599;-51
2023/12/06 17:58:51;;;;;;;1.95;0.90;;;;;;;20.67;31.88;101729.19;16120797;19;131876;-47
2023/12/06 18:04:14;;;;;;;2.17;1.20;;;;;;;20.79;31.88;101732.03;16118186;19;129984;-45
2023/12/06 18:09:37;;;;;;;2.35;1.00;;;;;;;20.75;31.66;101741.88;16122763;19;130415;-47
2023/12/06 18:15:00;;;;;;;3.35;1.38;;;;;;;20.58;32.06;101745.38;16118509;19;129685;-44
2023/12/06 18:20:22;;;;;;;8.02;1.27;;;;;;;20.40;32.58;101748.25;16120130;19;130089;-47
2023/12/06 18:25:44;;;;;;;3.88;1.20;;;;;;;20.21;32.78;101756.66;16121456;19;129561;-47
2023/12/06 18:31:06;;;;;;;2.00;1.17;;;;;;;20.02;33.12;101752.25;16113430;19;131608;-49
2023/12/06 18:36:28;;;;;;;9.75;1.25;;;;;;;19.93;33.29;101755.34;16115198;19;130457;-47
2023/12/06 18:41:50;;;;;;;5.30;1.30;;;;;;;19.96;33.31;101754.84;16118617;19;130120;-47
2023/12/06 18:47:12;;;;;;;4.55;1.35;;;;;;;20.06;33.63;101759.03;16119235;19;130285;-47
2023/12/06 18:52:34;;;;;;;2.35;1.05;;;;;;;20.18;33.38;101767.41;16113067;19;131448;-50
2023/12/06 18:57:57;;;;;;;6.40;1.30;;;;;;;20.27;33.24;101772.38;16105902;19;132273;-45
2023/12/06 19:03:19;;;;;;;3.53;1.10;;;;;;;20.38;33.21;101764.31;16107363;19;132060;-46
2023/12/06 19:08:41;;;;;;;7.50;1.35;;;;;;;20.46;33.06;101775.06;16111494;19;130075;-44
2023/12/06 19:14:03;;;;;;;9.20;1.63;;;;;;;20.50;33.32;101775.44;16115269;19;130493;-47
2023/12/06 19:19:25;;;;;;;13.85;1.67;;;;;;;20.54;33.32;101771.97;16116434;19;129621;-47
2023/12/06 19:24:47;;;;;;;11.75;1.80;;;;;;;20.82;32.97;101773.22;16113607;19;131679;-44
2023/12/06 19:30:10;;;;;;;8.73;1.77;;;;;;;21.13;32.79;101781.44;16113526;19;131289;-49
2023/12/06 19:35:32;;;;;;;5.47;1.30;;;;;;;21.50;31.92;101781.19;16115770;19;130854;-52
2023/12/06 19:40:54;;;;;;;5.45;1.67;;;;;;;21.84;31.71;101789.72;16116747;19;129566;-46
2023/12/06 19:46:16;;;;;;;6.13;1.30;;;;;;;22.07;31.70;101793.50;16113814;19;130518;-51
2023/12/06 19:51:38;;;;;;;5.65;1.60;;;;;;;22.11;31.19;101795.53;16115481;19;129536;-46
2023/12/06 19:57:02;;;;;;;4.65;1.40;;;;;;;22.07;31.15;101802.69;16113410;19;131121;-47
2023/12/06 20:02:24;;;;;;;7.25;1.70;;;;;;;22.00;31.46;101809.50;16113279;19;131672;-48
2023/12/06 20:07:47;;;;;;;4.68;1.52;;;;;;;21.91;31.45;101801.56;16113393;19;131072;-49
2023/12/06 20:13:09;;;;;;;7.55;1.45;;;;;;;21.81;31.53;101796.63;16111446;19;130338;-48
2023/12/06 20:18:31;;;;;;;4.13;1.30;;;;;;;21.73;31.71;101799.81;16110638;19;129734;-46
2023/12/06 20:23:55;;;;;;;2.30;1.17;;;;;;;21.63;31.90;101806.00;16112784;19;129909;-48
2023/12/06 20:29:20;;;;;;;4.88;1.25;;;;;;;21.55;32.07;101802.72;16107143;19;129759;-51
2023/12/06 20:34:45;;;;;;;7.80;1.58;;;;;;;21.48;31.97;101806.47;16108742;19;129567;-48
2023/12/06 20:40:09;;;;;;;2.60;1.10;;;;;;;21.49;31.86;101811.00;16108320;19;131346;-46
2023/12/06 20:45:31;;;;;;;4.10;1.48;;;;;;;21.52;32.11;101816.06;16108932;19;130121;-45
2023/12/06 20:50:55;;;;;;;2.47;1.15;;;;;;;21.64;31.96;101818.00;16108577;19;131303;-48
2023/12/06 20:56:17;;;;;;;3.30;1.40;;;;;;;21.71;32.06;101815.91;16108397;19;131247;-49
2023/12/06 21:01:41;;;;;;;3.70;1.40;;;;;;;21.77;31.69;101817.72;16109594;19;129707;-44
2023/12/06 21:07:03;;;;;;;4.68;1.20;;;;;;;21.80;31.47;101817.19;16110477;19;129726;-46
2023/12/06 21:12:25;;;;;;;2.63;1.40;;;;;;;21.75;31.90;101819.91;16110654;19;130117;-49
2023/12/06 21:17:47;;;;;;;1.85;1.23;;;;;;;21.61;32.12;101824.03;16109361;19;130772;-46
2023/12/06 21:23:09;;;;;;;2.55;1.33;;;;;;;21.42;31.80;101824.16;16107863;19;130877;-43
2023/12/06 21:28:32;;;;;;;4.60;1.73;;;;;;;21.18;32.23;101824.16;16105652;19;129432;-50
2023/12/06 21:33:54;;;;;;;3.40;1.50;;;;;;;21.01;32.68;101834.34;16105752;19;129628;-46
2023/12/06 21:39:16;;;;;;;2.28;1.30;;;;;;;20.83;32.78;101835.28;16108634;19;130635;-49
2023/12/06 21:44:38;;;;;;;2.20;1.42;;;;;;;20.65;32.76;101838.94;16107860;19;130488;-45
2023/12/06 21:50:00;;;;;;;3.97;1.48;;;;;;;20.46;32.77;101847.34;16107137;19;131357;-46
2023/12/06 21:55:22;;;;;;;2.67;1.45;;;;;;;20.29;33.00;101850.81;16108901;19;129306;-50
2023/12/06 22:00:44;;;;;;;2.67;1.50;;;;;;;20.15;33.34;101852.06;16109540;19;129469;-49
2023/12/06 22:06:08;;;;;;;2.10;1.42;;;;;;;20.02;33.57;101846.69;16105902;19;130310;-48
2023/12/06 22:11:29;;;;;;;3.47;1.65;;;;;;;19.90;33.46;101853.00;16106206;19;129251;-48
2023/12/06 22:16:51;;;;;;;2.70;1.55;;;;;;;19.77;33.81;101855.91;16106498;19;129613;-44
2023/12/06 22:22:13;;;;;;;4.20;1.50;;;;;;;19.66;33.71;101858.41;16104544;19;129499;-47
2023/12/06 22:27:35;;;;;;;2.53;1.17;;;;;;;19.54;34.26;101863.00;16106711;19;130992;-45
2023/12/06 22:32:57;;;;;;;2.88;1.75;;;;;;;19.45;34.18;101858.81;16101188;19;130066;-48
2023/12/06 22:38:19;;;;;;;2.40;1.50;;;;;;;19.36;34.43;101861.06;16111112;19;129361;-47
2023/12/06 22:43:41;;;;;;;3.22;1.42;;;;;;;19.28;34.07;101870.53;16120056;19;130329;-49
2023/12/06 22:49:03;;;;;;;2.40;1.55;;;;;;;19.19;34.37;101869.09;16122123;19;130900;-49
2023/12/06 22:54:25;;;;;;;5.05;1.90;;;;;;;19.12;34.12;101871.06;16117743;19;131177;-45
2023/12/06 22:59:47;;;;;;;1.98;1.40;;;;;;;19.06;34.39;101879.22;16117611;19;129254;-49
2023/12/06 23:05:09;;;;;;;3.40;1.65;;;;;;;19.01;34.13;101879.03;16119862;19;129711;-48
2023/12/06 23:10:32;;;;;;;2.95;1.70;;;;;;;18.99;34.42;101885.91;16119870;19;130373;-50
2023/12/06 23:15:54;;;;;;;2.85;1.60;;;;;;;18.93;34.48;101890.41;16121546;19;129726;-45
2023/12/06 23:21:16;;;;;;;5.68;1.80;;;;;;;18.87;34.45;101888.53;16111124;19;130290;-49
2023/12/06 23:26:38;;;;;;;5.10;1.60;;;;;;;18.83;34.74;101901.16;16109379;19;129660;-46
2023/12/06 23:32:00;;;;;;;2.65;1.40;;;;;;;18.77;34.82;101898.19;16119594;19;134235;-47
2023/12/06 23:37:22;;;;;;;4.47;1.75;;;;;;;18.73;34.52;101901.66;16117464;19;129589;-46
2023/12/06 23:42:44;;;;;;;1.58;1.25;;;;;;;18.68;34.88;101894.00;16116163;19;130958;-44
2023/12/06 23:48:06;;;;;;;2.65;1.50;;;;;;;18.64;34.96;101903.00;16113258;19;130267;-49
2023/12/06 23:53:28;;;;;;;2.88;1.60;;;;;;;18.57;34.83;101897.50;16115226;19;130954;-47
2023/12/06 23:58:50;;;;;;;2.22;1.55;;;;;;;18.55;35.08;101910.72;16110335;19;131056;-47
